Pagrindinis puslapis
METAR-TAF:

METAR-TAF

Oro uostai :

Konija, Turkija

platuma: 37-58N, ilguma: 032-33E, Aukštis: 1032 m

Dabartinis oras

Ataskaita buvo paskelbta 40 minutes, ne 04:50 UTC
Vėjas 9 kt iš Šiaurės
Temperatūra 23°C
Drėgmė 38%
Slėgis 1015 hPa
Matomumas 10 km arba daugiau
nėra debesų žemiau 1500 m ir nėra kamuolinių lietaus debesų

METAR: LTAN 130450Z 35009KT CAVOK 23/08 Q1015 NOSIG

Laikas: 08:30 (05:30 UTC)

Prognozė

Ataskaita buvo paskelbta 3 valandos ir 50 minutes, ne 01:40 UTC
Prognozė galioja nuo 13 metu 03 UTC su 13 metu 12 UTC
Vėjas 9 kt iš Šiaurės/Šiaurės Vakarų
Matomumas 10 km arba daugiau
nėra debesų žemiau 1500 m ir nėra kamuolinių lietaus debesų

TAF: LTAN 130140Z 1303/1312 34009KT CAVOK

Orai ataskaitas ir orų prognozės (METAR, TAF).

turimą stotys yra geltonos ir raudonos taškus žemėlapyje.

Perkelti pele per norėdami pamatyti stoties vardą.

Tada spustelėkite, norėdami matyti oro stebėjimo ir prognozės.

Norėdami pakeisti žemėlapį: spustelėkite ant žalios mygtukų su juodo kryžiaus žemyn,; žalią mygtuką su brūkšneliu, jei norite nutolinti; arba žalių rodyklių gretimoms žemėlapius.


METAR-TAF: